sensor_id;sensor_type;location;lat;lon;timestamp;P1;durP1;ratioP1;P2;durP2;ratioP2
25917;SDS011;13899;51.174;4.456;2023-05-14T00:01:40;55.35;;;36.78;;
25917;SDS011;13899;51.174;4.456;2023-05-14T00:04:06;48.13;;;36.42;;
25917;SDS011;13899;51.174;4.456;2023-05-14T00:06:32;57.20;;;36.90;;
25917;SDS011;13899;51.174;4.456;2023-05-14T00:08:57;49.65;;;35.90;;
25917;SDS011;13899;51.174;4.456;2023-05-14T00:11:23;51.67;;;35.97;;
25917;SDS011;13899;51.174;4.456;2023-05-14T00:13:49;51.33;;;37.40;;
25917;SDS011;13899;51.174;4.456;2023-05-14T00:16:15;48.47;;;35.93;;
25917;SDS011;13899;51.174;4.456;2023-05-14T00:18:40;50.97;;;35.83;;
25917;SDS011;13899;51.174;4.456;2023-05-14T00:21:06;51.50;;;38.20;;
25917;SDS011;13899;51.174;4.456;2023-05-14T00:23:32;51.03;;;37.63;;
25917;SDS011;13899;51.174;4.456;2023-05-14T00:25:57;50.13;;;37.23;;
25917;SDS011;13899;51.174;4.456;2023-05-14T00:28:23;54.57;;;38.30;;
25917;SDS011;13899;51.174;4.456;2023-05-14T00:30:49;48.00;;;36.13;;
25917;SDS011;13899;51.174;4.456;2023-05-14T00:33:15;51.58;;;37.67;;
25917;SDS011;13899;51.174;4.456;2023-05-14T00:35:40;56.63;;;38.55;;
25917;SDS011;13899;51.174;4.456;2023-05-14T00:38:06;50.40;;;36.73;;
25917;SDS011;13899;51.174;4.456;2023-05-14T00:40:32;52.97;;;35.53;;
25917;SDS011;13899;51.174;4.456;2023-05-14T00:42:58;53.77;;;33.30;;
25917;SDS011;13899;51.174;4.456;2023-05-14T00:45:24;46.30;;;35.00;;
25917;SDS011;13899;51.174;4.456;2023-05-14T00:47:50;58.78;;;37.20;;
25917;SDS011;13899;51.174;4.456;2023-05-14T00:50:16;49.72;;;35.70;;
25917;SDS011;13899;51.174;4.456;2023-05-14T00:52:42;45.07;;;35.40;;
25917;SDS011;13899;51.174;4.456;2023-05-14T00:55:09;42.85;;;33.40;;
25917;SDS011;13899;51.174;4.456;2023-05-14T00:57:40;44.15;;;34.70;;
25917;SDS011;13899;51.174;4.456;2023-05-14T01:00:06;43.25;;;34.25;;
25917;SDS011;13899;51.174;4.456;2023-05-14T01:02:32;45.85;;;36.92;;
25917;SDS011;13899;51.174;4.456;2023-05-14T01:04:58;53.53;;;37.70;;
25917;SDS011;13899;51.174;4.456;2023-05-14T01:10:05;54.30;;;38.72;;
25917;SDS011;13899;51.174;4.456;2023-05-14T01:15:11;52.38;;;36.72;;
25917;SDS011;13899;51.174;4.456;2023-05-14T01:17:47;55.30;;;37.35;;
25917;SDS011;13899;51.174;4.456;2023-05-14T01:20:23;46.28;;;35.40;;
25917;SDS011;13899;51.174;4.456;2023-05-14T01:22:50;47.05;;;37.13;;
25917;SDS011;13899;51.174;4.456;2023-05-14T01:25:16;52.92;;;36.20;;
25917;SDS011;13899;51.174;4.456;2023-05-14T01:30:35;52.03;;;37.03;;
25917;SDS011;13899;51.174;4.456;2023-05-14T01:33:08;48.65;;;35.72;;
25917;SDS011;13899;51.174;4.456;2023-05-14T01:35:37;56.80;;;37.85;;
25917;SDS011;13899;51.174;4.456;2023-05-14T01:38:06;54.03;;;37.80;;
25917;SDS011;13899;51.174;4.456;2023-05-14T01:40:34;51.83;;;36.20;;
25917;SDS011;13899;51.174;4.456;2023-05-14T01:43:01;50.00;;;37.70;;
25917;SDS011;13899;51.174;4.456;2023-05-14T01:45:29;47.72;;;37.65;;
25917;SDS011;13899;51.174;4.456;2023-05-14T01:47:55;51.97;;;37.65;;
25917;SDS011;13899;51.174;4.456;2023-05-14T01:50:21;49.95;;;35.67;;
25917;SDS011;13899;51.174;4.456;2023-05-14T01:52:47;48.45;;;36.88;;
25917;SDS011;13899;51.174;4.456;2023-05-14T01:55:13;41.70;;;34.75;;
25917;SDS011;13899;51.174;4.456;2023-05-14T01:57:39;45.97;;;37.15;;
25917;SDS011;13899;51.174;4.456;2023-05-14T02:00:05;45.37;;;35.73;;
25917;SDS011;13899;51.174;4.456;2023-05-14T02:02:31;43.38;;;36.67;;
25917;SDS011;13899;51.174;4.456;2023-05-14T02:04:57;50.08;;;36.35;;
25917;SDS011;13899;51.174;4.456;2023-05-14T02:07:23;50.47;;;37.13;;
25917;SDS011;13899;51.174;4.456;2023-05-14T02:09:48;51.87;;;37.03;;
25917;SDS011;13899;51.174;4.456;2023-05-14T02:12:14;45.00;;;35.13;;
25917;SDS011;13899;51.174;4.456;2023-05-14T02:14:39;46.53;;;34.80;;
25917;SDS011;13899;51.174;4.456;2023-05-14T02:17:05;46.43;;;35.13;;
25917;SDS011;13899;51.174;4.456;2023-05-14T02:19:31;48.95;;;34.78;;
25917;SDS011;13899;51.174;4.456;2023-05-14T02:21:57;44.43;;;34.80;;
25917;SDS011;13899;51.174;4.456;2023-05-14T02:24:25;41.55;;;35.40;;
25917;SDS011;13899;51.174;4.456;2023-05-14T02:26:50;39.27;;;33.07;;
25917;SDS011;13899;51.174;4.456;2023-05-14T02:29:16;49.63;;;35.22;;
25917;SDS011;13899;51.174;4.456;2023-05-14T02:31:42;49.08;;;34.03;;
25917;SDS011;13899;51.174;4.456;2023-05-14T02:34:08;50.70;;;35.87;;
25917;SDS011;13899;51.174;4.456;2023-05-14T02:36:34;39.65;;;33.28;;
25917;SDS011;13899;51.174;4.456;2023-05-14T02:38:59;40.10;;;33.40;;
25917;SDS011;13899;51.174;4.456;2023-05-14T02:41:25;43.97;;;33.78;;
25917;SDS011;13899;51.174;4.456;2023-05-14T02:43:51;50.65;;;34.03;;
25917;SDS011;13899;51.174;4.456;2023-05-14T02:46:17;39.53;;;33.17;;
25917;SDS011;13899;51.174;4.456;2023-05-14T02:48:43;44.78;;;34.38;;
25917;SDS011;13899;51.174;4.456;2023-05-14T02:51:09;45.73;;;33.87;;
25917;SDS011;13899;51.174;4.456;2023-05-14T02:53:35;40.30;;;32.63;;
25917;SDS011;13899;51.174;4.456;2023-05-14T02:56:00;43.95;;;33.72;;
25917;SDS011;13899;51.174;4.456;2023-05-14T02:58:26;45.70;;;35.47;;
25917;SDS011;13899;51.174;4.456;2023-05-14T03:00:52;44.15;;;35.00;;
25917;SDS011;13899;51.174;4.456;2023-05-14T03:03:18;49.53;;;34.75;;
25917;SDS011;13899;51.174;4.456;2023-05-14T03:05:43;47.05;;;33.67;;
25917;SDS011;13899;51.174;4.456;2023-05-14T03:08:09;48.15;;;33.97;;
25917;SDS011;13899;51.174;4.456;2023-05-14T03:10:35;40.15;;;33.22;;
25917;SDS011;13899;51.174;4.456;2023-05-14T03:13:01;43.75;;;34.30;;
25917;SDS011;13899;51.174;4.456;2023-05-14T03:15:27;47.75;;;33.92;;
25917;SDS011;13899;51.174;4.456;2023-05-14T03:17:52;41.33;;;32.10;;
25917;SDS011;13899;51.174;4.456;2023-05-14T03:20:18;46.30;;;33.13;;
25917;SDS011;13899;51.174;4.456;2023-05-14T03:22:44;46.20;;;33.23;;
25917;SDS011;13899;51.174;4.456;2023-05-14T03:25:10;48.10;;;34.47;;
25917;SDS011;13899;51.174;4.456;2023-05-14T03:27:36;48.70;;;33.58;;
25917;SDS011;13899;51.174;4.456;2023-05-14T03:30:01;46.23;;;33.87;;
25917;SDS011;13899;51.174;4.456;2023-05-14T03:32:27;49.40;;;36.47;;
25917;SDS011;13899;51.174;4.456;2023-05-14T03:34:54;47.28;;;34.17;;
25917;SDS011;13899;51.174;4.456;2023-05-14T03:37:19;45.00;;;34.45;;
25917;SDS011;13899;51.174;4.456;2023-05-14T03:39:45;48.63;;;33.87;;
25917;SDS011;13899;51.174;4.456;2023-05-14T03:42:11;49.57;;;36.83;;
25917;SDS011;13899;51.174;4.456;2023-05-14T03:44:36;54.80;;;36.60;;
25917;SDS011;13899;51.174;4.456;2023-05-14T03:47:02;54.50;;;36.92;;
25917;SDS011;13899;51.174;4.456;2023-05-14T03:49:28;53.22;;;36.80;;
25917;SDS011;13899;51.174;4.456;2023-05-14T03:51:53;49.30;;;34.50;;
25917;SDS011;13899;51.174;4.456;2023-05-14T03:54:19;51.03;;;35.10;;
25917;SDS011;13899;51.174;4.456;2023-05-14T03:56:45;54.40;;;35.57;;
25917;SDS011;13899;51.174;4.456;2023-05-14T03:59:11;49.15;;;36.47;;
25917;SDS011;13899;51.174;4.456;2023-05-14T04:01:37;50.20;;;35.47;;
25917;SDS011;13899;51.174;4.456;2023-05-14T04:04:02;47.00;;;35.25;;
25917;SDS011;13899;51.174;4.456;2023-05-14T04:06:28;51.37;;;34.83;;
25917;SDS011;13899;51.174;4.456;2023-05-14T04:08:53;47.43;;;34.50;;
25917;SDS011;13899;51.174;4.456;2023-05-14T04:11:19;50.47;;;33.90;;
25917;SDS011;13899;51.174;4.456;2023-05-14T04:13:45;41.30;;;33.33;;
25917;SDS011;13899;51.174;4.456;2023-05-14T04:16:11;45.63;;;31.53;;
25917;SDS011;13899;51.174;4.456;2023-05-14T04:18:36;51.50;;;35.33;;
25917;SDS011;13899;51.174;4.456;2023-05-14T04:21:02;49.67;;;34.38;;
25917;SDS011;13899;51.174;4.456;2023-05-14T04:23:28;49.47;;;34.07;;
25917;SDS011;13899;51.174;4.456;2023-05-14T04:25:55;47.45;;;34.63;;
25917;SDS011;13899;51.174;4.456;2023-05-14T04:28:21;52.97;;;36.47;;
25917;SDS011;13899;51.174;4.456;2023-05-14T04:30:47;51.77;;;33.87;;
25917;SDS011;13899;51.174;4.456;2023-05-14T04:33:13;53.93;;;36.10;;
25917;SDS011;13899;51.174;4.456;2023-05-14T04:35:39;45.00;;;33.60;;
25917;SDS011;13899;51.174;4.456;2023-05-14T04:38:05;42.87;;;31.70;;
25917;SDS011;13899;51.174;4.456;2023-05-14T04:40:31;48.15;;;34.85;;
25917;SDS011;13899;51.174;4.456;2023-05-14T04:42:57;46.47;;;33.30;;
25917;SDS011;13899;51.174;4.456;2023-05-14T04:45:22;41.03;;;31.77;;
25917;SDS011;13899;51.174;4.456;2023-05-14T04:47:48;47.93;;;32.77;;
25917;SDS011;13899;51.174;4.456;2023-05-14T04:50:14;49.53;;;33.53;;
25917;SDS011;13899;51.174;4.456;2023-05-14T04:52:39;54.53;;;36.97;;
25917;SDS011;13899;51.174;4.456;2023-05-14T04:55:05;60.20;;;36.63;;
25917;SDS011;13899;51.174;4.456;2023-05-14T04:57:31;60.33;;;38.07;;
25917;SDS011;13899;51.174;4.456;2023-05-14T04:59:57;55.53;;;37.17;;
25917;SDS011;13899;51.174;4.456;2023-05-14T05:02:22;53.95;;;36.88;;
25917;SDS011;13899;51.174;4.456;2023-05-14T05:04:48;51.87;;;36.10;;
25917;SDS011;13899;51.174;4.456;2023-05-14T05:07:14;59.43;;;37.93;;
25917;SDS011;13899;51.174;4.456;2023-05-14T05:09:40;61.25;;;38.78;;
25917;SDS011;13899;51.174;4.456;2023-05-14T05:12:06;64.80;;;38.90;;
25917;SDS011;13899;51.174;4.456;2023-05-14T05:14:33;58.85;;;36.75;;
25917;SDS011;13899;51.174;4.456;2023-05-14T05:16:59;56.00;;;36.00;;
25917;SDS011;13899;51.174;4.456;2023-05-14T05:19:24;63.92;;;39.05;;
25917;SDS011;13899;51.174;4.456;2023-05-14T05:21:50;62.88;;;37.60;;
25917;SDS011;13899;51.174;4.456;2023-05-14T05:24:16;64.90;;;38.75;;
25917;SDS011;13899;51.174;4.456;2023-05-14T05:26:41;70.18;;;39.78;;
25917;SDS011;13899;51.174;4.456;2023-05-14T05:29:07;68.70;;;38.67;;
25917;SDS011;13899;51.174;4.456;2023-05-14T05:31:33;59.60;;;37.30;;
25917;SDS011;13899;51.174;4.456;2023-05-14T05:33:58;59.73;;;35.17;;
25917;SDS011;13899;51.174;4.456;2023-05-14T05:36:24;53.67;;;36.43;;
25917;SDS011;13899;51.174;4.456;2023-05-14T05:38:50;58.42;;;36.15;;
25917;SDS011;13899;51.174;4.456;2023-05-14T05:41:16;57.27;;;35.90;;
25917;SDS011;13899;51.174;4.456;2023-05-14T05:43:42;60.38;;;36.72;;
25917;SDS011;13899;51.174;4.456;2023-05-14T05:46:07;63.95;;;38.00;;
25917;SDS011;13899;51.174;4.456;2023-05-14T05:48:33;69.27;;;38.07;;
25917;SDS011;13899;51.174;4.456;2023-05-14T05:50:58;61.63;;;37.57;;
25917;SDS011;13899;51.174;4.456;2023-05-14T05:53:25;56.43;;;36.43;;
25917;SDS011;13899;51.174;4.456;2023-05-14T05:55:51;59.72;;;37.35;;
25917;SDS011;13899;51.174;4.456;2023-05-14T05:58:19;58.15;;;36.80;;
25917;SDS011;13899;51.174;4.456;2023-05-14T06:00:45;56.25;;;35.60;;
25917;SDS011;13899;51.174;4.456;2023-05-14T06:03:12;56.20;;;36.33;;
25917;SDS011;13899;51.174;4.456;2023-05-14T06:05:38;56.03;;;35.15;;
25917;SDS011;13899;51.174;4.456;2023-05-14T06:08:04;56.70;;;36.77;;
25917;SDS011;13899;51.174;4.456;2023-05-14T06:10:29;54.80;;;33.63;;
25917;SDS011;13899;51.174;4.456;2023-05-14T06:12:55;53.53;;;33.33;;
25917;SDS011;13899;51.174;4.456;2023-05-14T06:15:21;61.50;;;34.40;;
25917;SDS011;13899;51.174;4.456;2023-05-14T06:17:47;55.97;;;35.03;;
25917;SDS011;13899;51.174;4.456;2023-05-14T06:20:13;53.63;;;33.17;;
25917;SDS011;13899;51.174;4.456;2023-05-14T06:22:38;51.00;;;34.40;;
25917;SDS011;13899;51.174;4.456;2023-05-14T06:25:04;56.70;;;34.80;;
25917;SDS011;13899;51.174;4.456;2023-05-14T06:27:30;52.53;;;32.03;;
25917;SDS011;13899;51.174;4.456;2023-05-14T06:29:56;47.60;;;31.20;;
25917;SDS011;13899;51.174;4.456;2023-05-14T06:32:21;48.70;;;32.00;;
25917;SDS011;13899;51.174;4.456;2023-05-14T06:34:47;46.80;;;33.53;;
25917;SDS011;13899;51.174;4.456;2023-05-14T06:37:13;53.53;;;33.40;;
25917;SDS011;13899;51.174;4.456;2023-05-14T06:39:38;54.23;;;34.80;;
25917;SDS011;13899;51.174;4.456;2023-05-14T06:42:08;47.67;;;32.63;;
25917;SDS011;13899;51.174;4.456;2023-05-14T06:44:33;44.23;;;33.37;;
25917;SDS011;13899;51.174;4.456;2023-05-14T06:47:00;56.08;;;31.85;;
25917;SDS011;13899;51.174;4.456;2023-05-14T06:49:25;46.03;;;32.60;;
25917;SDS011;13899;51.174;4.456;2023-05-14T06:51:51;48.30;;;32.72;;
25917;SDS011;13899;51.174;4.456;2023-05-14T06:54:18;44.45;;;33.50;;
25917;SDS011;13899;51.174;4.456;2023-05-14T06:56:44;46.78;;;32.42;;
25917;SDS011;13899;51.174;4.456;2023-05-14T06:59:10;46.22;;;33.33;;
25917;SDS011;13899;51.174;4.456;2023-05-14T07:01:36;43.73;;;32.83;;
25917;SDS011;13899;51.174;4.456;2023-05-14T07:04:01;40.65;;;32.30;;
25917;SDS011;13899;51.174;4.456;2023-05-14T07:06:27;56.47;;;35.40;;
25917;SDS011;13899;51.174;4.456;2023-05-14T07:08:53;52.33;;;35.13;;
25917;SDS011;13899;51.174;4.456;2023-05-14T07:11:18;44.40;;;34.33;;
25917;SDS011;13899;51.174;4.456;2023-05-14T07:13:44;46.47;;;33.33;;
25917;SDS011;13899;51.174;4.456;2023-05-14T07:16:09;48.63;;;31.77;;
25917;SDS011;13899;51.174;4.456;2023-05-14T07:18:35;41.27;;;31.37;;
25917;SDS011;13899;51.174;4.456;2023-05-14T07:21:01;39.33;;;30.17;;
25917;SDS011;13899;51.174;4.456;2023-05-14T07:23:30;30.55;;;27.13;;
25917;SDS011;13899;51.174;4.456;2023-05-14T07:26:01;37.50;;;28.85;;
25917;SDS011;13899;51.174;4.456;2023-05-14T07:28:27;31.85;;;27.05;;
25917;SDS011;13899;51.174;4.456;2023-05-14T07:30:53;29.88;;;26.35;;
25917;SDS011;13899;51.174;4.456;2023-05-14T07:33:18;31.90;;;27.73;;
25917;SDS011;13899;51.174;4.456;2023-05-14T07:35:44;28.40;;;25.37;;
25917;SDS011;13899;51.174;4.456;2023-05-14T07:38:10;32.13;;;24.97;;
25917;SDS011;13899;51.174;4.456;2023-05-14T07:40:35;32.53;;;26.20;;
25917;SDS011;13899;51.174;4.456;2023-05-14T07:43:01;27.10;;;24.30;;
25917;SDS011;13899;51.174;4.456;2023-05-14T07:45:27;29.87;;;26.10;;
25917;SDS011;13899;51.174;4.456;2023-05-14T07:47:53;26.67;;;23.83;;
25917;SDS011;13899;51.174;4.456;2023-05-14T07:50:18;28.35;;;25.30;;
25917;SDS011;13899;51.174;4.456;2023-05-14T07:52:44;32.80;;;26.47;;
25917;SDS011;13899;51.174;4.456;2023-05-14T07:55:11;30.93;;;26.60;;
25917;SDS011;13899;51.174;4.456;2023-05-14T07:57:37;29.50;;;25.30;;
25917;SDS011;13899;51.174;4.456;2023-05-14T08:00:03;27.07;;;24.43;;
25917;SDS011;13899;51.174;4.456;2023-05-14T08:02:31;31.60;;;28.20;;
25917;SDS011;13899;51.174;4.456;2023-05-14T08:04:57;34.00;;;28.70;;
25917;SDS011;13899;51.174;4.456;2023-05-14T08:07:23;33.03;;;28.05;;
25917;SDS011;13899;51.174;4.456;2023-05-14T08:09:49;35.42;;;31.05;;
25917;SDS011;13899;51.174;4.456;2023-05-14T08:12:15;35.60;;;29.50;;
25917;SDS011;13899;51.174;4.456;2023-05-14T08:14:40;33.67;;;29.92;;
25917;SDS011;13899;51.174;4.456;2023-05-14T08:17:06;36.03;;;29.93;;
25917;SDS011;13899;51.174;4.456;2023-05-14T08:19:32;42.63;;;33.30;;
25917;SDS011;13899;51.174;4.456;2023-05-14T08:21:57;34.90;;;30.98;;
25917;SDS011;13899;51.174;4.456;2023-05-14T08:24:23;32.17;;;28.97;;
25917;SDS011;13899;51.174;4.456;2023-05-14T08:26:49;34.80;;;31.13;;
25917;SDS011;13899;51.174;4.456;2023-05-14T08:29:14;41.90;;;33.30;;
25917;SDS011;13899;51.174;4.456;2023-05-14T08:31:40;44.43;;;32.97;;
25917;SDS011;13899;51.174;4.456;2023-05-14T08:34:06;35.13;;;31.23;;
25917;SDS011;13899;51.174;4.456;2023-05-14T08:36:31;37.33;;;32.45;;
25917;SDS011;13899;51.174;4.456;2023-05-14T08:38:57;35.77;;;31.97;;
25917;SDS011;13899;51.174;4.456;2023-05-14T08:41:23;35.90;;;29.67;;
25917;SDS011;13899;51.174;4.456;2023-05-14T08:46:33;32.75;;;29.30;;
25917;SDS011;13899;51.174;4.456;2023-05-14T08:49:15;32.78;;;26.90;;
25917;SDS011;13899;51.174;4.456;2023-05-14T08:51:44;32.63;;;28.38;;
25917;SDS011;13899;51.174;4.456;2023-05-14T08:54:16;29.75;;;27.08;;
25917;SDS011;13899;51.174;4.456;2023-05-14T08:56:43;32.78;;;27.73;;
25917;SDS011;13899;51.174;4.456;2023-05-14T08:59:12;30.55;;;26.30;;
25917;SDS011;13899;51.174;4.456;2023-05-14T09:01:38;30.03;;;27.27;;
25917;SDS011;13899;51.174;4.456;2023-05-14T09:04:08;29.42;;;26.00;;
25917;SDS011;13899;51.174;4.456;2023-05-14T09:06:35;28.92;;;26.05;;
25917;SDS011;13899;51.174;4.456;2023-05-14T09:09:04;29.80;;;26.95;;
25917;SDS011;13899;51.174;4.456;2023-05-14T09:11:30;29.80;;;26.85;;
25917;SDS011;13899;51.174;4.456;2023-05-14T09:13:56;29.63;;;26.63;;
25917;SDS011;13899;51.174;4.456;2023-05-14T09:16:21;37.53;;;29.87;;
25917;SDS011;13899;51.174;4.456;2023-05-14T09:18:49;31.63;;;28.38;;
25917;SDS011;13899;51.174;4.456;2023-05-14T09:21:16;29.80;;;26.53;;
25917;SDS011;13899;51.174;4.456;2023-05-14T09:26:09;33.80;;;26.73;;
25917;SDS011;13899;51.174;4.456;2023-05-14T09:28:38;28.73;;;26.13;;
25917;SDS011;13899;51.174;4.456;2023-05-14T09:31:05;28.50;;;26.17;;
25917;SDS011;13899;51.174;4.456;2023-05-14T09:33:33;27.83;;;24.95;;
25917;SDS011;13899;51.174;4.456;2023-05-14T09:35:59;27.30;;;24.87;;
25917;SDS011;13899;51.174;4.456;2023-05-14T09:38:31;26.60;;;24.35;;
25917;SDS011;13899;51.174;4.456;2023-05-14T09:40:58;26.48;;;24.10;;
25917;SDS011;13899;51.174;4.456;2023-05-14T09:45:50;24.85;;;22.40;;
25917;SDS011;13899;51.174;4.456;2023-05-14T09:48:17;24.70;;;22.30;;
25917;SDS011;13899;51.174;4.456;2023-05-14T09:50:43;23.97;;;21.90;;
25917;SDS011;13899;51.174;4.456;2023-05-14T09:53:10;24.13;;;21.70;;
25917;SDS011;13899;51.174;4.456;2023-05-14T09:55:37;25.02;;;22.92;;
25917;SDS011;13899;51.174;4.456;2023-05-14T09:58:03;26.27;;;23.75;;
25917;SDS011;13899;51.174;4.456;2023-05-14T10:00:33;26.00;;;23.85;;
25917;SDS011;13899;51.174;4.456;2023-05-14T10:03:02;26.10;;;23.70;;
25917;SDS011;13899;51.174;4.456;2023-05-14T10:05:31;25.45;;;23.27;;
25917;SDS011;13899;51.174;4.456;2023-05-14T10:07:59;28.60;;;25.98;;
25917;SDS011;13899;51.174;4.456;2023-05-14T10:10:28;27.58;;;24.55;;
25917;SDS011;13899;51.174;4.456;2023-05-14T10:12:59;26.13;;;23.55;;
25917;SDS011;13899;51.174;4.456;2023-05-14T10:16:15;25.83;;;23.45;;
25917;SDS011;13899;51.174;4.456;2023-05-14T10:18:41;26.00;;;23.80;;
25917;SDS011;13899;51.174;4.456;2023-05-14T10:21:12;28.40;;;25.80;;
25917;SDS011;13899;51.174;4.456;2023-05-14T10:23:40;28.17;;;25.50;;
25917;SDS011;13899;51.174;4.456;2023-05-14T10:26:07;28.77;;;26.17;;
25917;SDS011;13899;51.174;4.456;2023-05-14T10:28:34;28.58;;;25.67;;
25917;SDS011;13899;51.174;4.456;2023-05-14T10:31:00;31.52;;;28.80;;
25917;SDS011;13899;51.174;4.456;2023-05-14T10:33:26;26.27;;;23.70;;
25917;SDS011;13899;51.174;4.456;2023-05-14T10:35:56;26.77;;;24.33;;
25917;SDS011;13899;51.174;4.456;2023-05-14T10:38:25;25.88;;;23.63;;
25917;SDS011;13899;51.174;4.456;2023-05-14T10:40:56;28.88;;;26.20;;
25917;SDS011;13899;51.174;4.456;2023-05-14T10:43:45;23.67;;;21.60;;
25917;SDS011;13899;51.174;4.456;2023-05-14T10:46:12;25.80;;;23.48;;
25917;SDS011;13899;51.174;4.456;2023-05-14T10:48:40;21.65;;;19.95;;
25917;SDS011;13899;51.174;4.456;2023-05-14T10:51:10;25.27;;;23.10;;
25917;SDS011;13899;51.174;4.456;2023-05-14T10:53:37;23.65;;;21.85;;
25917;SDS011;13899;51.174;4.456;2023-05-14T10:56:05;22.83;;;20.83;;
25917;SDS011;13899;51.174;4.456;2023-05-14T10:58:42;20.65;;;18.95;;
25917;SDS011;13899;51.174;4.456;2023-05-14T11:01:09;20.80;;;19.27;;
25917;SDS011;13899;51.174;4.456;2023-05-14T11:03:40;24.98;;;22.80;;
25917;SDS011;13899;51.174;4.456;2023-05-14T11:06:10;22.27;;;20.65;;
25917;SDS011;13899;51.174;4.456;2023-05-14T11:08:37;34.33;;;31.85;;
25917;SDS011;13899;51.174;4.456;2023-05-14T11:11:04;24.00;;;21.83;;
25917;SDS011;13899;51.174;4.456;2023-05-14T11:13:30;23.63;;;21.13;;
25917;SDS011;13899;51.174;4.456;2023-05-14T11:15:58;27.98;;;25.75;;
25917;SDS011;13899;51.174;4.456;2023-05-14T11:18:29;29.00;;;26.67;;
25917;SDS011;13899;51.174;4.456;2023-05-14T11:20:57;32.33;;;29.92;;
25917;SDS011;13899;51.174;4.456;2023-05-14T11:23:27;23.17;;;20.98;;
25917;SDS011;13899;51.174;4.456;2023-05-14T11:25:53;20.40;;;18.58;;
25917;SDS011;13899;51.174;4.456;2023-05-14T11:28:20;20.48;;;18.48;;
25917;SDS011;13899;51.174;4.456;2023-05-14T11:30:47;31.27;;;28.65;;
25917;SDS011;13899;51.174;4.456;2023-05-14T11:33:14;31.55;;;29.20;;
25917;SDS011;13899;51.174;4.456;2023-05-14T11:35:40;19.38;;;17.88;;
25917;SDS011;13899;51.174;4.456;2023-05-14T11:38:19;27.15;;;24.35;;
25917;SDS011;13899;51.174;4.456;2023-05-14T11:40:51;26.75;;;24.85;;
25917;SDS011;13899;51.174;4.456;2023-05-14T11:43:21;18.63;;;17.20;;
25917;SDS011;13899;51.174;4.456;2023-05-14T11:48:13;22.85;;;21.25;;
25917;SDS011;13899;51.174;4.456;2023-05-14T11:50:39;24.80;;;22.98;;
25917;SDS011;13899;51.174;4.456;2023-05-14T11:53:18;25.25;;;23.30;;
25917;SDS011;13899;51.174;4.456;2023-05-14T11:55:48;17.17;;;15.77;;
25917;SDS011;13899;51.174;4.456;2023-05-14T11:58:14;17.92;;;16.33;;
25917;SDS011;13899;51.174;4.456;2023-05-14T12:00:43;17.17;;;15.68;;
25917;SDS011;13899;51.174;4.456;2023-05-14T12:03:09;14.73;;;13.27;;
25917;SDS011;13899;51.174;4.456;2023-05-14T12:05:36;16.73;;;15.30;;
25917;SDS011;13899;51.174;4.456;2023-05-14T12:08:21;16.23;;;14.90;;
25917;SDS011;13899;51.174;4.456;2023-05-14T12:10:49;17.23;;;15.60;;
25917;SDS011;13899;51.174;4.456;2023-05-14T12:13:16;15.77;;;14.38;;
25917;SDS011;13899;51.174;4.456;2023-05-14T12:15:46;14.63;;;13.43;;
25917;SDS011;13899;51.174;4.456;2023-05-14T12:18:17;14.77;;;13.40;;
25917;SDS011;13899;51.174;4.456;2023-05-14T12:20:46;15.47;;;14.17;;
25917;SDS011;13899;51.174;4.456;2023-05-14T12:23:12;16.13;;;14.60;;
25917;SDS011;13899;51.174;4.456;2023-05-14T12:25:39;15.55;;;14.02;;
25917;SDS011;13899;51.174;4.456;2023-05-14T12:28:16;15.98;;;13.00;;
25917;SDS011;13899;51.174;4.456;2023-05-14T12:30:43;14.45;;;13.13;;
25917;SDS011;13899;51.174;4.456;2023-05-14T12:33:09;12.80;;;11.73;;
25917;SDS011;13899;51.174;4.456;2023-05-14T12:35:35;12.07;;;11.00;;
25917;SDS011;13899;51.174;4.456;2023-05-14T12:38:01;13.07;;;11.70;;
25917;SDS011;13899;51.174;4.456;2023-05-14T12:40:29;14.15;;;12.80;;
25917;SDS011;13899;51.174;4.456;2023-05-14T12:42:55;14.90;;;11.67;;
25917;SDS011;13899;51.174;4.456;2023-05-14T12:45:21;12.47;;;11.40;;
25917;SDS011;13899;51.174;4.456;2023-05-14T12:47:46;11.30;;;10.30;;
25917;SDS011;13899;51.174;4.456;2023-05-14T12:50:12;12.73;;;11.43;;
25917;SDS011;13899;51.174;4.456;2023-05-14T12:52:38;12.67;;;11.03;;
25917;SDS011;13899;51.174;4.456;2023-05-14T12:55:04;12.53;;;11.17;;
25917;SDS011;13899;51.174;4.456;2023-05-14T12:57:30;11.77;;;10.63;;
25917;SDS011;13899;51.174;4.456;2023-05-14T12:59:56;11.18;;;10.15;;
25917;SDS011;13899;51.174;4.456;2023-05-14T13:02:21;11.27;;;10.37;;
25917;SDS011;13899;51.174;4.456;2023-05-14T13:04:47;16.00;;;9.90;;
25917;SDS011;13899;51.174;4.456;2023-05-14T13:07:13;10.67;;;9.67;;
25917;SDS011;13899;51.174;4.456;2023-05-14T13:09:39;11.88;;;10.70;;
25917;SDS011;13899;51.174;4.456;2023-05-14T13:12:05;12.57;;;10.77;;
25917;SDS011;13899;51.174;4.456;2023-05-14T13:14:31;13.73;;;11.65;;
25917;SDS011;13899;51.174;4.456;2023-05-14T13:16:56;13.13;;;11.80;;
25917;SDS011;13899;51.174;4.456;2023-05-14T13:19:22;12.47;;;11.20;;
25917;SDS011;13899;51.174;4.456;2023-05-14T13:21:47;10.40;;;9.47;;
25917;SDS011;13899;51.174;4.456;2023-05-14T13:24:13;12.10;;;10.90;;
25917;SDS011;13899;51.174;4.456;2023-05-14T13:26:39;11.17;;;10.17;;
25917;SDS011;13899;51.174;4.456;2023-05-14T13:29:04;11.70;;;10.50;;
25917;SDS011;13899;51.174;4.456;2023-05-14T13:31:30;13.15;;;10.20;;
25917;SDS011;13899;51.174;4.456;2023-05-14T13:33:56;13.33;;;11.83;;
25917;SDS011;13899;51.174;4.456;2023-05-14T13:36:23;11.77;;;10.52;;
25917;SDS011;13899;51.174;4.456;2023-05-14T13:38:49;11.47;;;10.40;;
25917;SDS011;13899;51.174;4.456;2023-05-14T13:41:14;14.77;;;10.20;;
25917;SDS011;13899;51.174;4.456;2023-05-14T13:43:40;12.03;;;10.93;;
25917;SDS011;13899;51.174;4.456;2023-05-14T13:46:06;10.90;;;9.80;;
25917;SDS011;13899;51.174;4.456;2023-05-14T13:48:31;16.23;;;14.97;;
25917;SDS011;13899;51.174;4.456;2023-05-14T13:50:58;16.23;;;11.25;;
25917;SDS011;13899;51.174;4.456;2023-05-14T13:53:24;13.33;;;12.00;;
25917;SDS011;13899;51.174;4.456;2023-05-14T13:55:50;11.50;;;9.95;;
25917;SDS011;13899;51.174;4.456;2023-05-14T13:58:20;10.57;;;9.57;;
25917;SDS011;13899;51.174;4.456;2023-05-14T14:00:49;12.02;;;10.85;;
25917;SDS011;13899;51.174;4.456;2023-05-14T14:03:15;13.07;;;11.90;;
25917;SDS011;13899;51.174;4.456;2023-05-14T14:05:41;11.00;;;9.73;;
25917;SDS011;13899;51.174;4.456;2023-05-14T14:08:07;11.70;;;9.93;;
25917;SDS011;13899;51.174;4.456;2023-05-14T14:10:32;9.20;;;8.30;;
25917;SDS011;13899;51.174;4.456;2023-05-14T14:12:58;13.97;;;12.67;;
25917;SDS011;13899;51.174;4.456;2023-05-14T14:15:24;11.03;;;8.80;;
25917;SDS011;13899;51.174;4.456;2023-05-14T14:17:50;12.80;;;11.63;;
25917;SDS011;13899;51.174;4.456;2023-05-14T14:20:15;13.63;;;12.33;;
25917;SDS011;13899;51.174;4.456;2023-05-14T14:22:41;12.43;;;11.23;;
25917;SDS011;13899;51.174;4.456;2023-05-14T14:25:08;13.57;;;12.20;;
25917;SDS011;13899;51.174;4.456;2023-05-14T14:30:04;14.05;;;12.55;;
25917;SDS011;13899;51.174;4.456;2023-05-14T14:32:33;10.40;;;9.48;;
25917;SDS011;13899;51.174;4.456;2023-05-14T14:34:59;13.07;;;11.87;;
25917;SDS011;13899;51.174;4.456;2023-05-14T14:37:25;11.33;;;10.13;;
25917;SDS011;13899;51.174;4.456;2023-05-14T14:39:51;12.13;;;10.73;;